Time;durP1;ratioP1;P1;durP2;ratioP2;P2;SDS_P1;SDS_P2;PMS_P1;PMS_P2;Temp;Humidity;BMP_temperature;BMP_pressure;BME280_temperature;BME280_humidity;BME280_pressure;Samples;Min_cycle;Max_cycle;Signal;HPM_P1;HPM_P2
2022/10/12 00:00:40;;;;;;;8.90;2.30;;;;;;;7.83;98.00;100659.46;106068;1284;72287;-79
2022/10/12 00:03:37;;;;;;;13.30;2.60;;;;;;;7.90;97.94;100659.47;106106;1288;67784;-76
2022/10/12 00:06:25;;;;;;;8.80;1.90;;;;;;;7.94;97.75;100661.68;106073;1285;72339;-76
2022/10/12 00:09:13;;;;;;;8.90;2.00;;;;;;;7.95;97.29;100664.42;106069;1284;59259;-75
2022/10/12 00:12:01;;;;;;;11.70;2.30;;;;;;;7.95;97.09;100668.36;105964;1284;59032;-75
2022/10/12 00:14:49;;;;;;;11.50;2.20;;;;;;;7.94;97.27;100668.39;106059;1292;73797;-75
2022/10/12 00:17:37;;;;;;;13.70;2.40;;;;;;;7.94;97.59;100670.31;106075;1289;67697;-75
2022/10/12 00:20:25;;;;;;;12.40;2.10;;;;;;;7.96;97.66;100667.92;106070;1292;74121;-75
2022/10/12 00:23:13;;;;;;;12.10;2.40;;;;;;;7.98;97.80;100672.39;106060;1292;58897;-77
2022/10/12 00:26:09;;;;;;;9.90;2.40;;;;;;;7.99;97.46;100677.13;106073;1292;60031;-75
2022/10/12 00:29:00;;;;;;;12.70;1.90;;;;;;;7.99;97.76;100681.71;106063;1291;73010;-75
2022/10/12 00:31:48;;;;;;;11.70;2.00;;;;;;;8.00;97.85;100678.48;106072;1289;66460;-74
2022/10/12 00:34:36;;;;;;;10.40;1.90;;;;;;;8.02;97.99;100682.23;106059;1292;73709;-76
2022/10/12 00:37:23;;;;;;;11.00;2.30;;;;;;;8.06;97.61;100684.69;106047;1282;60502;-75
2022/10/12 00:40:11;;;;;;;8.30;2.00;;;;;;;8.10;97.99;100682.00;106071;1289;61395;-76
2022/10/12 00:42:59;;;;;;;10.40;1.90;;;;;;;8.15;97.93;100681.87;106082;1291;71992;-75
2022/10/12 00:45:47;;;;;;;10.80;2.10;;;;;;;8.20;97.20;100682.08;106063;1289;67581;-76
2022/10/12 00:48:36;;;;;;;10.10;1.90;;;;;;;8.27;97.13;100677.63;106027;1289;73894;-74
2022/10/12 00:51:25;;;;;;;9.80;2.00;;;;;;;8.33;96.94;100678.70;105939;1290;60587;-75
2022/10/12 00:54:20;;;;;;;10.10;2.10;;;;;;;8.39;96.76;100680.63;106085;1289;58706;-75
2022/10/12 00:57:11;;;;;;;8.50;1.90;;;;;;;8.44;96.33;100678.08;106066;1289;73989;-75
2022/10/12 01:00:08;;;;;;;8.80;1.90;;;;;;;8.47;96.25;100680.39;105977;1284;66444;-74
2022/10/12 01:02:56;;;;;;;9.80;2.00;;;;;;;8.50;96.03;100678.24;105870;1290;72510;-74
2022/10/12 01:05:44;;;;;;;10.90;2.30;;;;;;;8.54;95.86;100681.73;106067;1284;59828;-75
2022/10/12 01:08:33;;;;;;;10.00;2.60;;;;;;;8.59;95.65;100683.77;105929;1291;59393;-76
2022/10/12 01:11:20;;;;;;;8.10;1.50;;;;;;;8.61;95.20;100686.45;105953;1284;72798;-75
2022/10/12 01:14:08;;;;;;;9.60;1.80;;;;;;;8.65;94.69;100690.80;106069;1291;67529;-74
2022/10/12 01:17:31;;;;;;;8.00;1.60;;;;;;;8.67;94.67;100687.33;106068;1290;72497;-74
2022/10/12 01:21:19;;;;;;;13.70;2.20;;;;;;;8.70;94.19;100685.20;106058;1292;59314;-74
2022/10/12 01:24:26;;;;;;;9.50;1.80;;;;;;;8.75;94.11;100688.12;105475;1297;60118;-74
2022/10/12 01:27:13;;;;;;;10.20;1.90;;;;;;;8.78;93.85;100692.88;105507;1298;73098;-73
2022/10/12 01:30:34;;;;;;;12.80;1.90;;;;;;;8.80;93.44;100693.45;105487;1297;68627;-75
2022/10/12 01:33:46;;;;;;;11.20;1.90;;;;;;;8.84;93.04;100686.14;105479;1297;72674;-75
2022/10/12 01:36:46;;;;;;;9.60;1.70;;;;;;;8.88;92.67;100682.20;105461;1297;57264;-75
2022/10/12 01:39:45;;;;;;;7.20;1.60;;;;;;;8.92;92.61;100680.87;105468;1297;61427;-76
2022/10/12 01:42:39;;;;;;;8.50;1.90;;;;;;;8.96;92.27;100681.16;105475;1297;73008;-75
2022/10/12 01:45:26;;;;;;;10.60;1.90;;;;;;;8.98;91.73;100678.79;105474;1297;66630;-75
2022/10/12 01:48:15;;;;;;;7.90;1.90;;;;;;;8.99;91.27;100680.61;105465;1304;73460;-76
2022/10/12 01:51:03;;;;;;;10.70;1.70;;;;;;;9.01;91.32;100679.83;105340;1297;60615;-74
2022/10/12 01:54:14;;;;;;;11.10;1.70;;;;;;;9.06;91.49;100683.77;105468;1297;60076;-74
2022/10/12 01:57:23;;;;;;;10.40;1.80;;;;;;;9.08;90.65;100682.20;105487;1297;73832;-74
2022/10/12 02:00:15;;;;;;;10.20;1.70;;;;;;;9.08;90.62;100679.88;106090;1287;67606;-73
2022/10/12 02:03:21;;;;;;;8.80;1.50;;;;;;;9.07;90.19;100677.34;106073;1287;72395;-75
2022/10/12 02:06:18;;;;;;;6.60;1.70;;;;;;;9.01;90.11;100677.02;105971;1291;57794;-75
2022/10/12 02:09:25;;;;;;;10.00;1.70;;;;;;;8.97;90.20;100679.16;105959;1287;58744;-76
2022/10/12 02:12:19;;;;;;;7.20;1.70;;;;;;;8.91;90.23;100684.66;105955;1284;71840;-76
2022/10/12 02:15:10;;;;;;;10.20;1.70;;;;;;;8.85;90.38;100682.88;105979;1292;67623;-76
2022/10/12 02:18:01;;;;;;;7.70;1.50;;;;;;;8.81;90.60;100685.59;106062;1291;73518;-76
2022/10/12 02:20:53;;;;;;;7.60;1.70;;;;;;;8.78;90.78;100684.89;106058;1296;60376;-76
2022/10/12 02:23:41;;;;;;;8.80;1.90;;;;;;;8.75;91.12;100684.59;105938;1284;58938;-75
2022/10/12 02:26:32;;;;;;;6.20;1.40;;;;;;;8.71;91.37;100681.84;106082;1292;72987;-76
2022/10/12 02:29:34;;;;;;;7.50;1.60;;;;;;;8.68;91.80;100683.03;105955;1284;66879;-74
2022/10/12 02:32:41;;;;;;;7.00;1.70;;;;;;;8.67;91.66;100686.82;105198;1295;1002990;-77
2022/10/12 02:35:51;;;;;;;9.00;1.90;;;;;;;8.70;92.06;100691.59;106068;1282;57928;-75
2022/10/12 02:38:58;;;;;;;7.70;1.60;;;;;;;8.73;91.75;100689.27;105896;1291;61590;-75
2022/10/12 02:41:51;;;;;;;10.50;1.60;;;;;;;8.76;91.90;100698.46;106059;1292;74026;-74
2022/10/12 02:44:42;;;;;;;10.30;1.70;;;;;;;8.79;91.79;100704.68;105939;1291;68892;-74
2022/10/12 02:47:32;;;;;;;8.10;1.70;;;;;;;8.83;91.63;100706.05;106087;1289;71561;-74
2022/10/12 02:50:23;;;;;;;7.90;1.90;;;;;;;8.85;92.37;100711.05;105932;1291;58003;-75
2022/10/12 02:53:11;;;;;;;8.00;2.10;;;;;;;8.87;92.36;100711.79;106070;1288;60269;-74
2022/10/12 02:56:09;;;;;;;11.40;2.80;;;;;;;8.88;92.43;100710.86;106064;1289;71694;-74
2022/10/12 02:58:56;;;;;;;15.80;4.20;;;;;;;8.90;92.75;100712.30;106058;1289;69036;-74
2022/10/12 03:01:44;;;;;;;10.70;3.60;;;;;;;8.93;92.95;100713.77;105948;1291;72613;-74
2022/10/12 03:04:32;;;;;;;12.20;3.90;;;;;;;8.95;93.17;100716.84;106055;1297;59545;-75
2022/10/12 03:07:20;;;;;;;9.60;3.40;;;;;;;8.96;93.21;100714.48;106045;1292;60345;-75
2022/10/12 03:10:08;;;;;;;9.70;3.00;;;;;;;8.97;93.53;100711.19;106060;1289;72974;-73
2022/10/12 03:12:55;;;;;;;9.00;2.60;;;;;;;8.96;93.75;100704.02;106042;1289;68745;-77
2022/10/12 03:15:43;;;;;;;10.70;2.00;;;;;;;8.93;94.36;100693.73;106071;1287;73443;-77
2022/10/12 03:18:33;;;;;;;9.60;2.20;;;;;;;8.90;95.03;100690.94;105964;1291;57817;-78
2022/10/12 03:21:21;;;;;;;11.30;3.00;;;;;;;8.86;94.90;100694.16;105906;1294;60292;-76
2022/10/12 03:24:09;;;;;;;10.10;2.10;;;;;;;8.83;94.85;100692.73;106081;1289;73056;-76
2022/10/12 03:26:56;;;;;;;7.20;1.90;;;;;;;8.81;95.36;100696.27;106051;1287;68997;-75
2022/10/12 03:29:44;;;;;;;11.70;2.30;;;;;;;8.79;95.27;100697.09;106037;1292;72441;-75
2022/10/12 03:32:32;;;;;;;9.90;2.40;;;;;;;8.79;95.60;100698.13;106053;1288;59328;-75
2022/10/12 03:35:20;;;;;;;9.90;2.20;;;;;;;8.80;95.56;100700.75;106054;1292;61166;-73
2022/10/12 03:38:08;;;;;;;7.80;1.60;;;;;;;8.79;95.82;100706.64;106068;1294;71648;-74
2022/10/12 03:40:56;;;;;;;8.50;2.00;;;;;;;8.76;96.47;100701.98;106081;1290;67707;-74
2022/10/12 03:43:44;;;;;;;9.40;1.80;;;;;;;8.75;96.23;100705.25;106075;1292;71282;-75
2022/10/12 03:46:31;;;;;;;8.90;2.10;;;;;;;8.74;96.47;100701.45;106034;1292;59355;-74
2022/10/12 03:49:19;;;;;;;10.10;1.90;;;;;;;8.73;96.51;100709.46;106063;1292;60270;-75
2022/10/12 03:52:07;;;;;;;8.90;2.10;;;;;;;8.72;96.79;100712.34;106076;1289;71565;-75
2022/10/12 03:54:55;;;;;;;13.50;2.00;;;;;;;8.72;97.10;100715.55;106061;1292;67988;-76
2022/10/12 03:57:44;;;;;;;8.80;1.90;;;;;;;8.70;96.90;100714.76;106059;1284;72337;-75
2022/10/12 04:00:31;;;;;;;9.00;2.40;;;;;;;8.69;97.41;100715.02;106074;1287;58146;-75
2022/10/12 04:03:20;;;;;;;9.30;2.00;;;;;;;8.68;97.22;100721.57;106086;1283;60354;-75
2022/10/12 04:06:07;;;;;;;13.90;2.30;;;;;;;8.67;96.97;100721.83;106082;1289;70978;-76
2022/10/12 04:08:55;;;;;;;8.40;2.10;;;;;;;8.67;97.09;100724.51;106047;1287;68967;-75
2022/10/12 04:11:43;;;;;;;9.50;1.90;;;;;;;8.65;97.18;100727.60;106056;1289;72374;-75
2022/10/12 04:14:30;;;;;;;7.70;2.00;;;;;;;8.65;97.04;100728.14;106038;1291;60339;-75
2022/10/12 04:17:18;;;;;;;8.80;2.10;;;;;;;8.64;96.77;100734.94;106066;1291;60073;-76
2022/10/12 04:20:06;;;;;;;9.40;2.00;;;;;;;8.60;96.96;100736.75;106064;1291;74038;-76
2022/10/12 04:22:54;;;;;;;11.00;2.70;;;;;;;8.56;96.86;100741.97;106066;1287;67982;-75
2022/10/12 04:25:42;;;;;;;7.90;2.30;;;;;;;8.51;96.82;100746.66;106071;1288;73438;-75
2022/10/12 04:28:30;;;;;;;8.30;2.00;;;;;;;8.43;96.98;100747.79;106056;1292;57666;-75
2022/10/12 04:31:20;;;;;;;12.50;2.20;;;;;;;8.35;97.15;100746.50;106061;1284;61325;-75
2022/10/12 04:34:09;;;;;;;11.00;2.30;;;;;;;8.26;97.71;100747.86;106060;1292;73887;-74
2022/10/12 04:36:57;;;;;;;11.00;2.20;;;;;;;8.18;98.73;100751.16;106085;1290;67852;-75
2022/10/12 04:39:44;;;;;;;7.90;2.00;;;;;;;8.10;98.56;100755.13;106046;1295;73910;-74
2022/10/12 04:42:32;;;;;;;9.50;1.90;;;;;;;8.05;99.70;100756.16;106090;1291;60386;-74
2022/10/12 04:45:22;;;;;;;9.60;2.40;;;;;;;7.99;99.53;100759.66;106002;1291;59769;-77
2022/10/12 04:48:10;;;;;;;12.40;2.50;;;;;;;7.95;99.63;100763.21;106004;1290;71683;-76
2022/10/12 04:50:58;;;;;;;10.50;2.20;;;;;;;7.92;99.77;100763.23;106078;1282;67769;-75
2022/10/12 04:53:46;;;;;;;9.40;2.40;;;;;;;7.88;99.91;100767.52;106075;1284;72498;-75
2022/10/12 04:56:33;;;;;;;9.80;2.40;;;;;;;7.85;99.79;100769.27;106052;1291;59438;-75
2022/10/12 04:59:21;;;;;;;8.50;2.30;;;;;;;7.82;99.91;100772.20;106076;1284;58674;-75
2022/10/12 05:02:09;;;;;;;9.70;2.00;;;;;;;7.80;100.00;100773.41;106075;1289;73900;-75
2022/10/12 05:04:57;;;;;;;9.80;2.50;;;;;;;7.77;100.00;100778.31;106060;1288;66677;-74
2022/10/12 05:07:44;;;;;;;11.80;2.60;;;;;;;7.75;100.00;100772.09;106031;1294;73660;-75
2022/10/12 05:10:32;;;;;;;10.70;2.50;;;;;;;7.73;100.00;100771.11;106025;1287;60568;-74
2022/10/12 05:13:22;;;;;;;10.40;2.60;;;;;;;7.73;100.00;100769.05;106049;1289;61325;-75
2022/10/12 05:16:10;;;;;;;9.80;2.20;;;;;;;7.73;100.00;100772.57;106062;1289;72565;-74
2022/10/12 05:18:58;;;;;;;9.20;2.30;;;;;;;7.73;100.00;100777.30;106090;1287;66312;-75
2022/10/12 05:21:46;;;;;;;10.60;2.10;;;;;;;7.74;100.00;100779.41;106047;1288;72785;-74
2022/10/12 05:24:34;;;;;;;11.40;2.60;;;;;;;7.74;100.00;100779.20;106048;1287;58263;-74
2022/10/12 05:27:22;;;;;;;8.70;2.20;;;;;;;7.76;100.00;100777.02;105748;1289;417553;-74
2022/10/12 05:30:10;;;;;;;9.00;2.20;;;;;;;7.76;100.00;100779.81;106068;1288;72863;-74
2022/10/12 05:32:58;;;;;;;9.50;2.70;;;;;;;7.77;100.00;100776.77;106000;1291;66321;-75
2022/10/12 05:35:47;;;;;;;13.40;2.80;;;;;;;7.80;100.00;100771.82;105991;1291;71092;-75
2022/10/12 05:38:41;;;;;;;10.30;2.80;;;;;;;7.86;100.00;100773.11;105980;1290;57125;-75
2022/10/12 05:41:29;;;;;;;12.30;2.60;;;;;;;7.90;100.00;100781.33;106002;1291;60141;-75
2022/10/12 05:44:16;;;;;;;10.70;2.30;;;;;;;7.97;100.00;100777.95;106010;1282;72989;-78
2022/10/12 05:47:04;;;;;;;9.20;2.50;;;;;;;8.04;100.00;100783.37;105983;1282;65566;-75
2022/10/12 05:49:52;;;;;;;9.50;2.20;;;;;;;8.16;100.00;100788.19;106009;1290;72600;-76
2022/10/12 05:52:39;;;;;;;12.50;2.50;;;;;;;8.28;100.00;100794.23;105978;1292;59337;-74
2022/10/12 05:55:28;;;;;;;9.80;2.30;;;;;;;8.45;100.00;100788.71;105969;1292;61337;-74
2022/10/12 05:58:16;;;;;;;11.80;2.20;;;;;;;8.64;100.00;100788.87;105884;1294;71397;-74
2022/10/12 06:01:07;;;;;;;10.40;2.60;;;;;;;8.82;99.45;100793.15;105963;1292;68590;-73
2022/10/12 06:03:54;;;;;;;10.80;2.70;;;;;;;8.96;98.83;100789.14;105975;1282;71578;-72
2022/10/12 06:06:42;;;;;;;10.30;2.80;;;;;;;9.11;97.93;100793.91;105853;1295;60707;-73
2022/10/12 06:09:30;;;;;;;10.30;3.10;;;;;;;9.26;97.51;100792.47;106094;1287;60269;-73
2022/10/12 06:12:18;;;;;;;10.30;2.90;;;;;;;9.44;97.08;100796.39;106052;1292;71390;-72
2022/10/12 06:15:07;;;;;;;10.90;3.60;;;;;;;9.56;96.31;100791.55;106054;1290;68657;-73
2022/10/12 06:17:55;;;;;;;11.80;3.70;;;;;;;9.66;95.06;100791.48;106061;1287;70457;-74
2022/10/12 06:20:52;;;;;;;12.20;3.40;;;;;;;9.76;94.88;100795.84;106040;1289;57993;-73
2022/10/12 06:24:01;;;;;;;9.70;3.00;;;;;;;9.91;93.84;100800.34;106059;1292;60082;-73
2022/10/12 06:26:49;;;;;;;10.30;2.90;;;;;;;10.06;93.53;100798.89;106031;1282;72748;-73
2022/10/12 06:29:37;;;;;;;10.60;3.50;;;;;;;10.17;92.62;100802.41;106049;1295;67697;-74
2022/10/12 06:32:24;;;;;;;12.20;2.90;;;;;;;10.29;91.74;100803.44;106057;1289;72352;-73
2022/10/12 06:35:12;;;;;;;11.00;2.80;;;;;;;10.37;91.43;100806.11;105993;1292;57832;-75
2022/10/12 06:38:00;;;;;;;12.80;3.80;;;;;;;10.51;91.10;100809.81;105979;1288;61327;-72
2022/10/12 06:40:48;;;;;;;12.20;5.20;;;;;;;10.68;90.53;100811.57;105954;1292;73834;-75
2022/10/12 06:43:36;;;;;;;11.40;3.20;;;;;;;10.82;88.84;100812.94;105986;1292;67952;-76
2022/10/12 06:46:24;;;;;;;11.60;3.90;;;;;;;10.99;88.57;100812.39;105996;1290;72830;-73
2022/10/12 06:49:12;;;;;;;27.60;14.40;;;;;;;11.12;87.70;100811.63;105983;1291;57870;-73
2022/10/12 06:52:00;;;;;;;14.10;3.80;;;;;;;11.23;86.61;100806.63;105979;1292;60339;-74
2022/10/12 06:54:48;;;;;;;14.80;5.90;;;;;;;11.31;85.66;100811.42;105992;1292;73846;-75
2022/10/12 06:57:36;;;;;;;10.70;3.20;;;;;;;11.42;85.61;100812.42;105968;1292;67683;-74
2022/10/12 07:00:24;;;;;;;11.50;3.60;;;;;;;11.50;84.47;100812.95;105894;1292;72595;-74
2022/10/12 07:03:13;;;;;;;9.20;2.90;;;;;;;11.55;84.13;100811.22;105881;1292;60416;-77
2022/10/12 07:06:10;;;;;;;12.10;3.20;;;;;;;11.59;83.25;100812.38;105977;1291;61237;-75
2022/10/12 07:08:58;;;;;;;10.80;3.80;;;;;;;11.66;83.36;100812.42;105984;1284;71691;-74
2022/10/12 07:11:46;;;;;;;10.20;2.80;;;;;;;11.74;83.03;100807.88;105979;1290;67825;-74
2022/10/12 07:14:34;;;;;;;10.70;3.10;;;;;;;11.84;82.22;100811.13;106010;1292;72674;-74
2022/10/12 07:17:22;;;;;;;12.40;2.30;;;;;;;11.97;81.92;100818.39;105985;1292;59460;-73
2022/10/12 07:20:10;;;;;;;10.70;2.80;;;;;;;12.21;81.20;100821.84;105994;1290;58745;-75
2022/10/12 07:22:58;;;;;;;11.70;5.20;;;;;;;12.48;80.03;100821.81;105916;1295;73968;-76
2022/10/12 07:25:49;;;;;;;9.60;3.10;;;;;;;12.74;78.26;100825.27;105983;1292;68632;-76
2022/10/12 07:28:37;;;;;;;11.70;2.80;;;;;;;12.96;76.95;100828.62;105983;1290;72604;-75
2022/10/12 07:31:25;;;;;;;11.60;2.50;;;;;;;13.18;75.29;100830.89;105988;1291;58806;-75
2022/10/12 07:34:12;;;;;;;10.60;2.70;;;;;;;13.33;74.43;100827.59;106003;1290;60249;-75
2022/10/12 07:37:01;;;;;;;10.30;2.40;;;;;;;13.62;73.81;100825.75;105998;1290;72992;-75
2022/10/12 07:39:48;;;;;;;9.20;2.80;;;;;;;14.06;72.28;100823.02;105995;1292;68625;-76
2022/10/12 07:42:36;;;;;;;9.10;2.60;;;;;;;14.80;70.23;100825.36;105971;1290;72731;-76
2022/10/12 07:45:44;;;;;;;8.40;2.40;;;;;;;15.88;65.61;100821.73;105968;1292;58915;-74
2022/10/12 07:48:33;;;;;;;9.70;2.20;;;;;;;16.53;63.20;100820.80;106019;1292;60147;-75
2022/10/12 07:51:21;;;;;;;11.30;2.60;;;;;;;16.95;60.33;100821.05;105987;1290;74042;-75
2022/10/12 07:54:09;;;;;;;8.70;2.40;;;;;;;17.82;57.22;100817.55;106007;1290;67677;-76
2022/10/12 07:56:56;;;;;;;9.80;2.20;;;;;;;18.90;54.27;100818.52;105993;1294;72106;-74
2022/10/12 07:59:44;;;;;;;7.80;1.90;;;;;;;19.59;51.44;100816.88;105980;1295;58814;-74
2022/10/12 08:02:32;;;;;;;8.30;1.90;;;;;;;20.71;49.74;100819.67;105979;1292;61197;-74
2022/10/12 08:05:21;;;;;;;11.40;3.20;;;;;;;21.12;46.51;100817.60;106042;1289;72754;-75
2022/10/12 08:08:08;;;;;;;8.80;1.80;;;;;;;21.19;46.19;100814.66;106056;1287;68649;-74
2022/10/12 08:11:00;;;;;;;10.40;2.40;;;;;;;21.05;45.96;100818.31;106064;1284;72571;-75
2022/10/12 08:13:48;;;;;;;8.40;1.90;;;;;;;20.68;46.13;100821.66;105980;1295;57238;-76
2022/10/12 08:16:35;;;;;;;8.90;2.10;;;;;;;20.18;46.83;100814.64;106005;1290;60078;-73
2022/10/12 08:19:23;;;;;;;10.20;2.80;;;;;;;19.94;47.29;100821.01;105927;1291;73868;-75
2022/10/12 08:22:11;;;;;;;9.20;2.20;;;;;;;19.83;47.80;100818.33;106056;1289;69038;-74
2022/10/12 08:24:59;;;;;;;8.90;2.20;;;;;;;19.83;48.02;100817.14;106055;1289;72742;-75
2022/10/12 08:27:46;;;;;;;10.10;2.50;;;;;;;19.83;47.93;100815.71;106081;1289;57570;-75
2022/10/12 08:30:34;;;;;;;10.10;2.00;;;;;;;19.69;47.71;100822.11;106092;1295;61440;-73
2022/10/12 08:33:22;;;;;;;8.30;1.90;;;;;;;19.56;48.09;100819.77;106057;1294;72812;-75
2022/10/12 08:36:11;;;;;;;10.60;2.20;;;;;;;19.32;48.33;100819.62;106069;1289;68208;-75
2022/10/12 08:39:00;;;;;;;7.40;1.90;;;;;;;19.14;48.99;100819.16;106019;1289;73735;-75
2022/10/12 08:42:21;;;;;;;9.10;2.00;;;;;;;18.92;48.87;100821.73;106045;1295;58715;-75
2022/10/12 08:45:33;;;;;;;9.40;2.20;;;;;;;18.65;49.76;100825.14;105963;1287;59578;-73
2022/10/12 08:48:26;;;;;;;13.10;3.00;;;;;;;18.66;50.26;100831.31;106074;1289;73028;-75
2022/10/12 08:51:22;;;;;;;11.80;2.70;;;;;;;18.62;49.86;100827.23;106084;1292;67570;-74
2022/10/12 08:54:18;;;;;;;7.80;1.60;;;;;;;18.58;49.97;100829.19;105964;1287;72716;-75
2022/10/12 08:57:16;;;;;;;10.50;2.10;;;;;;;18.29;50.38;100832.05;106056;1298;58976;-74
2022/10/12 09:00:13;;;;;;;10.00;1.60;;;;;;;18.18;51.16;100829.96;105921;1299;60195;-76
2022/10/12 09:03:16;;;;;;;12.30;2.20;;;;;;;18.07;51.08;100831.24;105975;1292;72912;-75
2022/10/12 09:06:15;;;;;;;9.80;2.00;;;;;;;17.85;51.08;100838.63;105965;1289;68755;-74
2022/10/12 09:09:22;;;;;;;7.80;1.70;;;;;;;17.64;51.00;100836.91;105948;1291;72327;-75
2022/10/12 09:12:34;;;;;;;17.00;2.90;;;;;;;17.56;52.12;100833.94;106044;1285;57214;-75
2022/10/12 09:15:28;;;;;;;8.80;1.90;;;;;;;17.69;51.76;100830.12;106032;1290;60709;-75
2022/10/12 09:18:24;;;;;;;9.40;1.90;;;;;;;18.06;51.32;100829.98;106057;1287;74057;-73
2022/10/12 09:21:21;;;;;;;9.00;1.90;;;;;;;18.40;50.08;100829.81;105895;1290;68902;-75
2022/10/12 09:24:26;;;;;;;7.80;1.50;;;;;;;18.53;48.77;100831.16;105937;1292;72454;-74
2022/10/12 09:27:17;;;;;;;10.10;2.10;;;;;;;18.50;48.42;100825.20;105959;1295;57867;-74
2022/10/12 09:30:06;;;;;;;11.60;2.10;;;;;;;18.89;48.14;100827.80;105957;1289;60007;-74
2022/10/12 09:33:15;;;;;;;10.40;1.80;;;;;;;19.30;47.17;100829.20;106064;1289;73884;-74
2022/10/12 09:36:03;;;;;;;10.30;2.70;;;;;;;19.32;47.03;100826.47;105952;1284;68554;-73
2022/10/12 09:38:51;;;;;;;13.80;5.10;;;;;;;19.24;46.51;100833.93;106044;1295;73732;-75
2022/10/12 09:41:43;;;;;;;10.00;2.70;;;;;;;19.18;46.61;100831.67;106060;1289;59215;-74
2022/10/12 09:44:43;;;;;;;11.10;3.90;;;;;;;19.38;46.30;100838.62;106077;1295;60207;-73
2022/10/12 09:47:32;;;;;;;8.70;2.10;;;;;;;19.64;44.91;100839.36;106067;1289;73038;-73
2022/10/12 09:50:50;;;;;;;8.60;1.60;;;;;;;20.03;43.93;100841.67;105939;1291;68622;-73
2022/10/12 09:53:48;;;;;;;9.00;2.10;;;;;;;20.25;42.48;100836.63;105907;1290;71337;-75
2022/10/12 09:56:48;;;;;;;8.70;1.90;;;;;;;20.58;42.72;100845.16;105939;1292;59133;-73
2022/10/12 09:59:43;;;;;;;7.00;1.60;;;;;;;20.54;41.67;100839.52;105944;1287;60192;-74
2022/10/12 10:02:33;;;;;;;7.00;1.40;;;;;;;20.94;41.71;100842.08;105954;1291;72888;-75
2022/10/12 10:05:28;;;;;;;7.20;1.50;;;;;;;20.97;40.46;100843.50;106062;1289;67789;-74
2022/10/12 10:08:19;;;;;;;9.60;2.10;;;;;;;20.33;41.04;100841.21;105965;1291;72398;-73
2022/10/12 10:11:15;;;;;;;7.80;1.40;;;;;;;19.77;41.42;100841.52;106073;1292;58787;-73
2022/10/12 10:14:03;;;;;;;17.60;2.30;;;;;;;19.38;42.89;100846.42;105926;1297;60169;-73
2022/10/12 10:16:53;;;;;;;7.60;1.40;;;;;;;19.13;43.92;100847.27;106071;1279;72973;-74
2022/10/12 10:19:49;;;;;;;7.70;1.60;;;;;;;20.97;41.91;100840.95;106051;1282;68826;-74
2022/10/12 10:22:46;;;;;;;7.30;1.20;;;;;;;22.39;38.80;100833.81;105941;1290;71879;-73
2022/10/12 10:25:34;;;;;;;7.60;1.50;;;;;;;22.85;37.18;100823.42;106050;1292;59051;-74
2022/10/12 10:28:28;;;;;;;7.20;1.30;;;;;;;23.28;35.98;100817.77;105948;1289;60303;-73
2022/10/12 10:31:28;;;;;;;7.70;1.50;;;;;;;24.88;34.42;100814.59;106067;1288;73156;-73
2022/10/12 10:34:15;;;;;;;9.20;1.40;;;;;;;26.36;31.60;100803.30;105955;1292;67992;-73
2022/10/12 10:37:05;;;;;;;8.20;1.90;;;;;;;26.98;30.41;100803.32;106066;1292;71070;-75
2022/10/12 10:39:56;;;;;;;9.40;1.50;;;;;;;27.44;29.65;100807.04;106063;1292;57436;-73
2022/10/12 10:42:49;;;;;;;9.10;1.30;;;;;;;27.91;27.77;100811.04;106071;1292;60110;-74
2022/10/12 10:46:04;;;;;;;5.70;1.00;;;;;;;28.07;27.09;100806.43;105961;1289;74382;-74
2022/10/12 10:48:57;;;;;;;6.00;1.20;;;;;;;27.59;27.68;100808.26;106078;1289;67761;-74
2022/10/12 10:51:56;;;;;;;10.50;1.40;;;;;;;27.09;28.36;100808.56;106057;1289;73750;-75
2022/10/12 10:54:44;;;;;;;7.60;2.20;;;;;;;27.75;27.40;100809.19;105943;1292;57195;-75
2022/10/12 10:57:35;;;;;;;7.10;2.00;;;;;;;28.23;26.82;100809.23;105935;1289;61524;-74
2022/10/12 11:00:23;;;;;;;10.80;1.60;;;;;;;28.65;26.91;100804.91;105941;1290;70774;-75
2022/10/12 11:03:45;;;;;;;6.40;1.00;;;;;;;29.23;25.71;100806.79;105949;1283;68899;-74
2022/10/12 11:06:43;;;;;;;6.70;1.30;;;;;;;29.54;25.78;100812.20;105951;1291;72618;-75
2022/10/12 11:09:53;;;;;;;7.00;1.20;;;;;;;28.36;26.75;100810.90;106068;1290;57698;-75
2022/10/12 11:12:48;;;;;;;8.70;1.20;;;;;;;26.38;28.62;100810.98;106090;1289;58930;-75
2022/10/12 11:16:01;;;;;;;7.40;1.10;;;;;;;24.64;30.79;100824.39;105946;1291;74020;-74
2022/10/12 11:19:54;;;;;;;7.40;1.20;;;;;;;24.00;32.34;100819.58;105964;1290;69064;-74
2022/10/12 11:22:53;;;;;;;6.60;1.10;;;;;;;22.07;34.75;100817.04;105125;1295;71208;-75
2022/10/12 11:25:59;;;;;;;7.10;1.30;;;;;;;21.70;36.01;100820.13;105096;1304;57308;-74
2022/10/12 11:28:47;;;;;;;6.40;1.60;;;;;;;21.19;37.11;100822.02;105097;1302;61206;-75
2022/10/12 11:31:38;;;;;;;7.10;1.40;;;;;;;20.51;38.32;100821.58;105107;1309;72796;-73
2022/10/12 11:34:30;;;;;;;5.90;1.40;;;;;;;20.00;39.39;100817.17;105107;1301;66694;-74
2022/10/12 11:37:21;;;;;;;6.80;1.60;;;;;;;19.38;40.60;100818.69;105119;1302;69996;-74
2022/10/12 11:40:21;;;;;;;9.10;1.70;;;;;;;18.82;42.43;100813.41;104959;1302;58988;-73
2022/10/12 11:43:29;;;;;;;8.10;1.40;;;;;;;18.40;43.68;100813.09;104889;1302;58394;-73
2022/10/12 11:46:25;;;;;;;9.50;1.60;;;;;;;18.23;44.85;100814.30;104973;1303;71761;-73
2022/10/12 11:49:52;;;;;;;6.40;1.70;;;;;;;18.12;45.42;100811.17;104988;1304;68137;-74
2022/10/12 11:52:49;;;;;;;6.30;1.10;;;;;;;18.67;45.21;100808.01;105007;1306;73645;-74
2022/10/12 11:55:47;;;;;;;7.00;1.20;;;;;;;19.64;42.73;100807.17;105398;1297;57164;-74
2022/10/12 11:58:40;;;;;;;8.10;1.50;;;;;;;20.11;41.44;100801.04;105611;1288;60093;-75
2022/10/12 12:02:10;;;;;;;8.00;1.60;;;;;;;20.77;39.99;100804.20;105985;1289;73794;-74
2022/10/12 12:04:57;;;;;;;7.70;1.50;;;;;;;21.25;38.95;100806.42;106073;1292;66220;-76
2022/10/12 12:07:55;;;;;;;6.90;1.40;;;;;;;21.58;38.72;100805.42;105933;1284;72788;-73
2022/10/12 12:10:50;;;;;;;7.10;1.30;;;;;;;21.92;37.66;100797.80;105929;1291;58976;-74
2022/10/12 12:13:38;;;;;;;7.90;1.30;;;;;;;21.88;37.76;100800.02;105808;1295;60074;-74
2022/10/12 12:16:31;;;;;;;6.30;1.40;;;;;;;21.29;38.68;100805.91;105877;1292;73037;-74
2022/10/12 12:19:39;;;;;;;8.70;1.60;;;;;;;20.65;39.53;100806.95;105815;1291;67557;-74
2022/10/12 12:22:32;;;;;;;6.90;1.30;;;;;;;19.89;41.16;100810.36;105902;1291;71346;-77
2022/10/12 12:25:31;;;;;;;13.10;1.70;;;;;;;19.22;42.66;100813.47;105868;1295;57996;-76
2022/10/12 12:28:23;;;;;;;13.40;1.80;;;;;;;18.62;44.32;100816.42;105873;1292;61134;-76
2022/10/12 12:31:12;;;;;;;6.50;1.30;;;;;;;17.94;46.51;100823.02;105849;1292;73983;-75
2022/10/12 12:34:16;;;;;;;7.70;1.70;;;;;;;17.29;48.47;100827.79;105825;1293;67538;-74
2022/10/12 12:37:11;;;;;;;6.40;1.30;;;;;;;16.74;50.10;100830.38;105869;1284;72613;-75
2022/10/12 12:39:59;;;;;;;7.60;1.30;;;;;;;16.40;51.38;100826.47;105787;1286;58400;-75
2022/10/12 12:42:47;;;;;;;9.30;1.90;;;;;;;16.20;52.50;100826.42;105865;1290;61221;-75
2022/10/12 12:45:35;;;;;;;8.20;1.50;;;;;;;16.02;53.56;100823.39;105818;1285;73066;-75
2022/10/12 12:48:37;;;;;;;12.20;1.80;;;;;;;15.76;54.38;100824.36;105881;1292;67674;-75
2022/10/12 12:51:38;;;;;;;7.80;1.30;;;;;;;15.51;55.58;100829.53;105875;1295;71860;-75
2022/10/12 12:54:26;;;;;;;6.40;1.30;;;;;;;15.32;56.68;100827.95;105794;1295;57678;-75
2022/10/12 12:57:38;;;;;;;8.40;1.90;;;;;;;15.19;57.74;100829.45;105865;1294;59902;-76
2022/10/12 13:00:37;;;;;;;8.00;1.70;;;;;;;15.05;58.25;100831.87;105877;1285;73812;-75
2022/10/12 13:04:00;;;;;;;7.80;1.80;;;;;;;14.93;58.57;100829.41;105884;1292;67688;-72
2022/10/12 13:07:13;;;;;;;9.70;2.00;;;;;;;14.79;59.18;100832.23;105852;1292;74166;-75
2022/10/12 13:10:30;;;;;;;9.50;1.60;;;;;;;14.66;59.45;100834.42;105874;1294;57830;-75
2022/10/12 13:14:06;;;;;;;5.90;1.30;;;;;;;14.51;59.37;100836.12;106004;1292;58974;-74
2022/10/12 13:17:32;;;;;;;8.40;1.70;;;;;;;14.36;59.61;100835.38;105406;1298;71409;-76